Pittsburgh, Pennsylvania
Traffic Map
Current Weather Conditions
Pittsburgh, Pennsylvania
Clear
Clear
76°
Feels Like: 76°
Wind Chill: 76° Ceiling: Unl
Heat Index: 76° Visibility: 10mi
Dew Point: 51° Wind: 17mph
Humidity: 42% Direction: 240° (WSW)
Pressure: 30.17in Gusts: 23mph
Raw Report DataKAGC 201853Z 24015G20KT 10SM CLR 24/11 A3017 RMK AO2 SLP215 T02440106
Traffic Incident Summary
Active as of:
Severity:
Category:
InformationThere was an issue retrieving the traffic information for this location. Please try a different location or try again shortly.
Advertisements